sensor_id;sensor_type;location;lat;lon;timestamp;temperature;humidity
74534;SHT31;63012;51.096;-115.366;2022-08-19T21:47:23;23.82;39.09
74534;SHT31;63012;51.096;-115.366;2022-08-19T21:49:53;23.92;39.06
74534;SHT31;63012;51.096;-115.366;2022-08-19T21:52:24;23.99;38.95
74534;SHT31;63012;51.096;-115.366;2022-08-19T21:54:54;24.06;38.65
74534;SHT31;63012;51.096;-115.366;2022-08-19T21:57:22;24.10;38.48
74534;SHT31;63012;51.096;-115.366;2022-08-19T21:59:50;24.15;38.36
74534;SHT31;63012;51.096;-115.366;2022-08-19T22:02:23;24.19;38.25
74534;SHT31;63012;51.096;-115.366;2022-08-19T22:04:52;24.23;38.17
74534;SHT31;63012;51.096;-115.366;2022-08-19T22:07:19;24.26;38.07
74534;SHT31;63012;51.096;-115.366;2022-08-19T22:09:47;24.29;37.99
74534;SHT31;63012;51.096;-115.366;2022-08-19T22:12:25;24.30;37.88
74534;SHT31;63012;51.096;-115.366;2022-08-19T22:14:56;24.34;37.75
74534;SHT31;63012;51.096;-115.366;2022-08-19T22:17:24;24.37;37.60
74534;SHT31;63012;51.096;-115.366;2022-08-19T22:19:55;24.40;37.49
74534;SHT31;63012;51.096;-115.366;2022-08-19T22:22:26;24.44;37.37
74534;SHT31;63012;51.096;-115.366;2022-08-19T22:25:01;24.45;37.26
74534;SHT31;63012;51.096;-115.366;2022-08-19T22:27:37;24.45;37.59
74534;SHT31;63012;51.096;-115.366;2022-08-19T22:30:07;24.45;37.45
74534;SHT31;63012;51.096;-115.366;2022-08-19T22:32:47;24.44;37.38
74534;SHT31;63012;51.096;-115.366;2022-08-19T22:35:18;24.46;37.69
74534;SHT31;63012;51.096;-115.366;2022-08-19T22:37:48;24.50;38.46
74534;SHT31;63012;51.096;-115.366;2022-08-19T22:40:25;24.57;38.89
74534;SHT31;63012;51.096;-115.366;2022-08-19T22:42:58;24.66;39.09
74534;SHT31;63012;51.096;-115.366;2022-08-19T22:45:34;24.77;39.37
74534;SHT31;63012;51.096;-115.366;2022-08-19T22:48:03;24.83;39.49
74534;SHT31;63012;51.096;-115.366;2022-08-19T22:50:33;24.90;39.51
74534;SHT31;63012;51.096;-115.366;2022-08-19T22:53:02;24.96;39.54
74534;SHT31;63012;51.096;-115.366;2022-08-19T22:55:37;25.02;39.51
74534;SHT31;63012;51.096;-115.366;2022-08-19T22:58:07;25.08;39.48
74534;SHT31;63012;51.096;-115.366;2022-08-19T23:00:33;25.13;39.42
74534;SHT31;63012;51.096;-115.366;2022-08-19T23:03:05;25.17;39.37
74534;SHT31;63012;51.096;-115.366;2022-08-19T23:05:32;25.23;39.33
74534;SHT31;63012;51.096;-115.366;2022-08-19T23:07:59;25.28;39.31
74534;SHT31;63012;51.096;-115.366;2022-08-19T23:10:29;25.34;39.24
74534;SHT31;63012;51.096;-115.366;2022-08-19T23:12:57;25.40;39.17
74534;SHT31;63012;51.096;-115.366;2022-08-19T23:15:29;25.46;39.10
74534;SHT31;63012;51.096;-115.366;2022-08-19T23:17:58;25.50;39.02
74534;SHT31;63012;51.096;-115.366;2022-08-19T23:20:33;25.57;38.93
74534;SHT31;63012;51.096;-115.366;2022-08-19T23:23:06;25.63;38.84
74534;SHT31;63012;51.096;-115.366;2022-08-19T23:25:37;25.67;38.74
74534;SHT31;63012;51.096;-115.366;2022-08-19T23:28:05;25.71;38.69
74534;SHT31;63012;51.096;-115.366;2022-08-19T23:30:51;25.77;38.60
74534;SHT31;63012;51.096;-115.366;2022-08-19T23:33:29;25.81;38.54
74534;SHT31;63012;51.096;-115.366;2022-08-19T23:36:04;25.86;38.46
74534;SHT31;63012;51.096;-115.366;2022-08-19T23:38:38;25.90;38.37
74534;SHT31;63012;51.096;-115.366;2022-08-19T23:41:09;25.93;38.36
74534;SHT31;63012;51.096;-115.366;2022-08-19T23:43:38;25.98;38.31
74534;SHT31;63012;51.096;-115.366;2022-08-19T23:46:07;26.02;38.25
74534;SHT31;63012;51.096;-115.366;2022-08-19T23:48:38;26.06;38.21
74534;SHT31;63012;51.096;-115.366;2022-08-19T23:51:08;26.09;38.15
74534;SHT31;63012;51.096;-115.366;2022-08-19T23:53:39;26.14;38.12
74534;SHT31;63012;51.096;-115.366;2022-08-19T23:56:07;26.16;38.09
74534;SHT31;63012;51.096;-115.366;2022-08-19T23:58:36;26.21;38.03
